Time;durP1;ratioP1;P1;durP2;ratioP2;P2;SDS_P1;SDS_P2;PMS_P1;PMS_P2;Temp;Humidity;BMP_temperature;BMP_pressure;BME280_temperature;BME280_humidity;BME280_pressure;Samples;Min_cycle;Max_cycle;Signal;HPM_P1;HPM_P2
2021/06/29 00:01:19;;;;;;;0.00;0.00;;;24.50;75.30;;;;;;4208251;28;20102;-52
2021/06/29 00:03:42;;;;;;;0.00;0.00;;;24.50;74.40;;;;;;4192694;28;20135;-52
2021/06/29 00:06:04;;;;;;;0.10;0.10;;;24.50;74.50;;;;;;4190312;28;20140;-55
2021/06/29 00:08:26;;;;;;;0.00;0.00;;;24.50;74.50;;;;;;4195908;28;20048;-55
2021/06/29 00:10:49;;;;;;;0.00;0.00;;;24.50;74.60;;;;;;4191255;28;20119;-52
2021/06/29 00:13:13;;;;;;;0.32;0.32;;;24.50;74.60;;;;;;4199136;28;20060;-49
2021/06/29 00:15:35;;;;;;;0.00;0.00;;;24.50;74.50;;;;;;4208468;28;20105;-50
2021/06/29 00:17:58;;;;;;;0.10;0.10;;;24.50;74.50;;;;;;4206397;28;20044;-50
2021/06/29 00:20:20;;;;;;;0.00;0.00;;;24.50;74.50;;;;;;4208339;28;20043;-52
2021/06/29 00:22:42;;;;;;;0.65;0.65;;;24.50;74.50;;;;;;4196884;28;20051;-52
2021/06/29 00:25:05;;;;;;;0.00;0.00;;;24.50;74.60;;;;;;4202610;28;20489;-53
2021/06/29 00:27:27;;;;;;;0.00;0.00;;;24.50;74.60;;;;;;4208081;28;20056;-50
2021/06/29 00:29:50;;;;;;;0.08;0.08;;;24.50;74.60;;;;;;4208172;28;20135;-52
2021/06/29 00:32:12;;;;;;;0.63;0.63;;;24.50;74.70;;;;;;4207069;28;20097;-53
2021/06/29 00:34:34;;;;;;;0.00;0.00;;;24.50;74.80;;;;;;4207787;28;20066;-54
2021/06/29 00:36:56;;;;;;;0.25;0.25;;;24.50;74.80;;;;;;4208020;28;20456;-50
2021/06/29 00:39:18;;;;;;;0.00;0.00;;;24.50;74.80;;;;;;4208029;28;20043;-54
2021/06/29 00:41:41;;;;;;;0.75;0.70;;;24.50;74.80;;;;;;4206906;28;20051;-54
2021/06/29 00:44:03;;;;;;;0.95;0.90;;;24.50;74.80;;;;;;4207874;28;20556;-54
2021/06/29 00:46:26;;;;;;;1.45;0.40;;;24.50;74.80;;;;;;4206079;28;20055;-54
2021/06/29 00:48:49;;;;;;;0.20;0.20;;;24.50;74.80;;;;;;4206270;28;20124;-54
2021/06/29 00:51:13;;;;;;;0.10;0.10;;;24.50;75.60;;;;;;4207928;28;20040;-54
2021/06/29 00:53:37;;;;;;;6.30;0.75;;;24.50;74.80;;;;;;4207977;28;20147;-53
2021/06/29 00:55:59;;;;;;;0.10;0.10;;;24.50;74.80;;;;;;4208077;28;20074;-53
2021/06/29 00:58:21;;;;;;;0.00;0.00;;;24.50;74.70;;;;;;4207870;28;20747;-55
2021/06/29 01:00:44;;;;;;;0.00;0.00;;;24.50;74.80;;;;;;4207606;28;20062;-51
2021/06/29 01:03:07;;;;;;;0.50;0.50;;;24.50;74.70;;;;;;4191074;28;20144;-48
2021/06/29 01:05:29;;;;;;;0.00;0.00;;;24.50;74.80;;;;;;4191029;28;20056;-50
2021/06/29 01:07:51;;;;;;;0.00;0.00;;;24.50;74.80;;;;;;4189718;28;20075;-52
2021/06/29 01:10:14;;;;;;;0.10;0.10;;;24.50;74.80;;;;;;4191087;28;20050;-55
2021/06/29 01:12:36;;;;;;;0.00;0.00;;;24.50;74.70;;;;;;4189667;28;20052;-52
2021/06/29 01:14:58;;;;;;;0.30;0.30;;;24.50;74.60;;;;;;4201690;28;20154;-52
2021/06/29 01:17:22;;;;;;;0.00;0.00;;;24.50;74.70;;;;;;4207046;28;20052;-48
2021/06/29 01:19:47;;;;;;;0.00;0.00;;;24.50;74.60;;;;;;4205887;28;20482;-52
2021/06/29 01:22:11;;;;;;;0.00;0.00;;;24.50;74.70;;;;;;4194922;28;20053;-51
2021/06/29 01:24:34;;;;;;;0.00;0.00;;;24.50;74.60;;;;;;4190974;28;20048;-52
2021/06/29 01:27:02;;;;;;;0.00;0.00;;;24.50;74.60;;;;;;4190674;28;20040;-55
2021/06/29 01:29:36;;;;;;;0.20;0.20;;;24.50;74.60;;;;;;4201345;28;20137;-50
2021/06/29 01:31:57;;;;;;;0.00;0.00;;;24.50;74.60;;;;;;4206625;28;20070;-53
2021/06/29 01:34:20;;;;;;;0.10;0.10;;;24.50;74.70;;;;;;4207631;28;20048;-53
2021/06/29 01:36:43;;;;;;;0.38;0.38;;;24.50;74.70;;;;;;4207602;28;20134;-52
2021/06/29 01:39:09;;;;;;;0.00;0.00;;;24.50;74.70;;;;;;4207258;28;20105;-49
2021/06/29 01:41:32;;;;;;;0.30;0.30;;;24.50;74.70;;;;;;4197270;28;20059;-53
2021/06/29 01:43:56;;;;;;;0.00;0.00;;;24.50;74.70;;;;;;4190927;28;20110;-54
2021/06/29 01:46:19;;;;;;;0.10;0.10;;;24.50;74.80;;;;;;4205946;28;20574;-52
2021/06/29 01:48:46;;;;;;;0.13;0.13;;;24.50;75.70;;;;;;4207487;28;20559;-54
2021/06/29 01:51:08;;;;;;;1.02;0.43;;;24.50;74.90;;;;;;4206968;28;20120;-55
2021/06/29 01:53:30;;;;;;;0.00;0.00;;;24.50;74.80;;;;;;4194507;28;20067;-53
2021/06/29 01:55:54;;;;;;;0.00;0.00;;;24.50;74.80;;;;;;4191646;28;20056;-54
2021/06/29 01:58:24;;;;;;;2.25;0.60;;;24.40;74.70;;;;;;4190131;28;20538;-52
2021/06/29 02:00:46;;;;;;;0.20;0.20;;;24.40;74.70;;;;;;4178977;28;20044;-53
2021/06/29 02:03:08;;;;;;;0.00;0.00;;;24.40;74.70;;;;;;4191997;28;20036;-51
2021/06/29 02:05:31;;;;;;;0.08;0.08;;;24.50;74.70;;;;;;4204928;28;20117;-52
2021/06/29 02:07:53;;;;;;;0.00;0.00;;;24.40;74.70;;;;;;4210464;28;20044;-52
2021/06/29 02:10:16;;;;;;;0.00;0.00;;;24.40;74.70;;;;;;4210480;28;20058;-51
2021/06/29 02:12:39;;;;;;;0.00;0.00;;;24.40;74.70;;;;;;4210027;28;20132;-53
2021/06/29 02:15:02;;;;;;;0.00;0.00;;;24.40;74.70;;;;;;4209754;28;20036;-52
2021/06/29 02:17:24;;;;;;;0.00;0.00;;;24.40;74.70;;;;;;4194104;28;20044;-53
2021/06/29 02:19:46;;;;;;;0.20;0.20;;;24.40;74.70;;;;;;4209720;28;20101;-53
2021/06/29 02:22:08;;;;;;;0.13;0.13;;;24.40;74.70;;;;;;4210132;28;20051;-52
2021/06/29 02:24:30;;;;;;;0.00;0.00;;;24.40;74.70;;;;;;4209947;28;20067;-52
2021/06/29 02:26:52;;;;;;;1.20;0.73;;;24.40;74.70;;;;;;4209844;28;20413;-50
2021/06/29 02:29:16;;;;;;;0.00;0.00;;;24.40;74.70;;;;;;4210131;28;20490;-52
2021/06/29 02:31:38;;;;;;;3.40;3.13;;;24.40;74.80;;;;;;4209408;28;20056;-53
2021/06/29 02:34:00;;;;;;;0.13;0.13;;;24.40;74.80;;;;;;4210017;28;20059;-52
2021/06/29 02:36:22;;;;;;;0.10;0.10;;;24.40;74.70;;;;;;4210063;28;20102;-50
2021/06/29 02:38:44;;;;;;;0.05;0.05;;;24.40;74.70;;;;;;4201099;28;20052;-50
2021/06/29 02:41:24;;;;;;;0.43;0.15;;;24.40;74.70;;;;;;4192879;28;20066;-54
2021/06/29 02:43:47;;;;;;;0.20;0.20;;;24.40;74.70;;;;;;4193808;28;20071;-50
2021/06/29 02:46:11;;;;;;;0.00;0.00;;;24.40;74.70;;;;;;4209085;28;20383;-49
2021/06/29 02:48:33;;;;;;;0.00;0.00;;;24.30;75.60;;;;;;4208938;28;20040;-54
2021/06/29 02:50:56;;;;;;;0.08;0.08;;;24.30;74.70;;;;;;4209656;28;20101;-51
2021/06/29 02:53:18;;;;;;;0.00;0.00;;;24.30;74.70;;;;;;4209734;28;20047;-52
2021/06/29 02:55:40;;;;;;;0.00;0.00;;;24.30;74.70;;;;;;4209723;28;20532;-50
2021/06/29 02:58:03;;;;;;;0.10;0.10;;;24.30;74.70;;;;;;4191756;28;20508;-53
2021/06/29 03:00:24;;;;;;;0.00;0.00;;;24.30;74.70;;;;;;4192008;28;20045;-50
2021/06/29 03:02:48;;;;;;;0.05;0.05;;;24.30;74.70;;;;;;4192480;28;20410;-49
2021/06/29 03:05:11;;;;;;;0.00;0.00;;;24.30;74.70;;;;;;4206927;28;20052;-51
2021/06/29 03:07:33;;;;;;;0.00;0.00;;;24.30;74.70;;;;;;4209414;28;20044;-51
2021/06/29 03:09:55;;;;;;;0.20;0.20;;;24.20;74.70;;;;;;4209390;28;20048;-49
2021/06/29 03:12:17;;;;;;;0.17;0.17;;;24.20;74.70;;;;;;4209113;28;20052;-50
2021/06/29 03:14:40;;;;;;;0.10;0.10;;;24.20;74.70;;;;;;4208238;28;20040;-49
2021/06/29 03:17:03;;;;;;;0.00;0.00;;;24.20;74.80;;;;;;4197044;28;20182;-53
2021/06/29 03:19:26;;;;;;;0.00;0.00;;;24.20;74.80;;;;;;4192503;28;20135;-50
2021/06/29 03:21:48;;;;;;;0.00;0.00;;;24.20;74.80;;;;;;4192651;28;20460;-50
2021/06/29 03:24:11;;;;;;;0.32;0.32;;;24.20;74.90;;;;;;4200995;28;20059;-51
2021/06/29 03:26:33;;;;;;;0.00;0.00;;;24.20;74.80;;;;;;4208756;28;20433;-52
2021/06/29 03:28:55;;;;;;;0.30;0.30;;;24.20;74.80;;;;;;4209232;28;20051;-55
2021/06/29 03:31:17;;;;;;;1.65;1.55;;;24.20;74.90;;;;;;4200444;28;20052;-51
2021/06/29 03:33:40;;;;;;;0.10;0.10;;;24.20;74.90;;;;;;4192381;28;20059;-53
2021/06/29 03:36:04;;;;;;;0.00;0.00;;;24.20;74.90;;;;;;4198339;28;20051;-50
2021/06/29 03:38:26;;;;;;;0.00;0.00;;;24.10;74.90;;;;;;4207554;28;20136;-49
2021/06/29 03:40:48;;;;;;;0.00;0.00;;;24.10;74.90;;;;;;4198337;28;20391;-51
2021/06/29 03:43:10;;;;;;;0.30;0.30;;;24.20;75.00;;;;;;4194231;28;20060;-53
2021/06/29 03:45:33;;;;;;;0.40;0.40;;;24.10;74.90;;;;;;4208049;28;20052;-52
2021/06/29 03:47:55;;;;;;;0.30;0.30;;;24.20;75.00;;;;;;4208592;28;20461;-53
2021/06/29 03:50:17;;;;;;;0.00;0.00;;;24.10;74.90;;;;;;4190022;28;20106;-50
2021/06/29 03:52:41;;;;;;;0.43;0.43;;;24.10;75.00;;;;;;4193186;28;20059;-54
2021/06/29 03:55:03;;;;;;;0.47;0.47;;;24.10;74.90;;;;;;4175020;28;20053;-55
2021/06/29 03:57:25;;;;;;;0.00;0.00;;;24.10;75.00;;;;;;4192138;28;20414;-54
2021/06/29 03:59:48;;;;;;;0.22;0.22;;;24.10;75.00;;;;;;4191981;28;20052;-52
2021/06/29 04:02:10;;;;;;;0.60;0.60;;;24.10;75.00;;;;;;4191838;28;20121;-55
2021/06/29 04:04:33;;;;;;;0.10;0.10;;;24.10;75.00;;;;;;4198910;28;20045;-52
2021/06/29 04:06:55;;;;;;;0.28;0.28;;;24.10;75.00;;;;;;4191551;28;20059;-49
2021/06/29 04:09:19;;;;;;;0.00;0.00;;;24.10;75.00;;;;;;4191905;28;20056;-55
2021/06/29 04:11:41;;;;;;;0.00;0.00;;;24.10;75.20;;;;;;4203450;28;20077;-53
2021/06/29 04:14:04;;;;;;;0.10;0.10;;;24.10;75.40;;;;;;4208673;28;20463;-54
2021/06/29 04:16:26;;;;;;;0.10;0.10;;;24.10;75.50;;;;;;4196793;28;20748;-53
2021/06/29 04:18:48;;;;;;;0.00;0.00;;;24.10;75.50;;;;;;4191415;28;20047;-51
2021/06/29 04:21:11;;;;;;;0.25;0.25;;;24.10;75.50;;;;;;4191483;28;20045;-52
2021/06/29 04:23:34;;;;;;;0.10;0.10;;;24.10;75.60;;;;;;4199850;28;20044;-49
2021/06/29 04:25:57;;;;;;;0.00;0.00;;;24.10;75.50;;;;;;4207763;28;20044;-51
2021/06/29 04:28:19;;;;;;;0.15;0.15;;;24.10;75.50;;;;;;4208284;28;20146;-55
2021/06/29 04:30:41;;;;;;;0.03;0.03;;;24.10;75.60;;;;;;4207185;28;20422;-53
2021/06/29 04:33:04;;;;;;;0.32;0.32;;;24.10;75.50;;;;;;4208151;28;20047;-51
2021/06/29 04:35:26;;;;;;;0.00;0.00;;;24.10;75.60;;;;;;4208072;28;20509;-51
2021/06/29 04:37:47;;;;;;;0.03;0.03;;;24.10;75.60;;;;;;4208066;28;20040;-50
2021/06/29 04:40:11;;;;;;;1.45;0.90;;;24.10;75.60;;;;;;4208064;28;20063;-51
2021/06/29 04:42:35;;;;;;;0.00;0.00;;;24.10;76.50;;;;;;4207643;28;20134;-50
2021/06/29 04:44:58;;;;;;;1.05;1.05;;;24.10;75.60;;;;;;4207238;28;20056;-52
2021/06/29 04:47:19;;;;;;;0.00;0.00;;;24.00;75.60;;;;;;4208225;28;20044;-52
2021/06/29 04:49:42;;;;;;;1.00;0.90;;;24.00;75.70;;;;;;4208128;28;20060;-53
2021/06/29 04:52:05;;;;;;;0.00;0.00;;;24.00;75.70;;;;;;4207715;28;20127;-50
2021/06/29 04:54:27;;;;;;;0.10;0.10;;;24.00;75.80;;;;;;4207906;28;20039;-51
2021/06/29 04:56:49;;;;;;;0.00;0.00;;;24.00;75.80;;;;;;4207937;28;20055;-53
2021/06/29 04:59:12;;;;;;;0.00;0.00;;;24.00;75.80;;;;;;4208203;28;20519;-54
2021/06/29 05:01:34;;;;;;;0.05;0.05;;;24.00;75.80;;;;;;4191317;28;20048;-52
2021/06/29 05:03:57;;;;;;;0.10;0.10;;;24.00;75.80;;;;;;4207408;28;20522;-50
2021/06/29 05:06:19;;;;;;;0.63;0.63;;;24.00;75.80;;;;;;4208138;28;20050;-53
2021/06/29 05:08:41;;;;;;;0.65;0.30;;;24.00;75.90;;;;;;4207859;28;20506;-54
2021/06/29 05:11:04;;;;;;;0.28;0.28;;;24.00;75.90;;;;;;4206441;28;20211;-51
2021/06/29 05:13:26;;;;;;;0.10;0.10;;;24.00;75.90;;;;;;4207589;28;20052;-53
2021/06/29 05:15:49;;;;;;;0.00;0.00;;;24.00;76.00;;;;;;4205596;28;20527;-52
2021/06/29 05:18:11;;;;;;;0.20;0.20;;;24.00;76.20;;;;;;4207488;28;20044;-52
2021/06/29 05:20:33;;;;;;;0.00;0.00;;;24.00;76.30;;;;;;4207484;28;20055;-51
2021/06/29 05:22:55;;;;;;;0.00;0.00;;;24.00;76.30;;;;;;4207303;28;20070;-50
2021/06/29 05:25:18;;;;;;;0.30;0.30;;;24.00;76.60;;;;;;4207622;28;20055;-46
2021/06/29 05:27:40;;;;;;;1.35;1.25;;;24.00;76.90;;;;;;4190893;28;20144;-45
2021/06/29 05:30:02;;;;;;;0.43;0.43;;;24.00;76.80;;;;;;4173740;28;20049;-46
2021/06/29 05:32:26;;;;;;;0.30;0.30;;;24.00;76.60;;;;;;4192951;28;20162;-44
2021/06/29 05:34:48;;;;;;;2.00;0.85;;;24.00;76.60;;;;;;4202085;28;21140;-46
2021/06/29 05:37:10;;;;;;;0.00;0.00;;;24.00;76.60;;;;;;4190551;28;20079;-44
2021/06/29 05:39:32;;;;;;;0.95;0.95;;;24.00;76.70;;;;;;4177384;28;20052;-45
2021/06/29 05:41:54;;;;;;;1.08;0.60;;;24.00;76.70;;;;;;4207113;28;20052;-47
2021/06/29 05:44:16;;;;;;;0.40;0.40;;;24.00;77.70;;;;;;4209615;28;20036;-48
2021/06/29 05:46:40;;;;;;;0.10;0.10;;;24.00;76.80;;;;;;4194050;28;20715;-52
2021/06/29 05:49:08;;;;;;;0.40;0.40;;;24.00;76.90;;;;;;4193929;28;20051;-45
2021/06/29 05:51:31;;;;;;;0.00;0.00;;;24.00;77.00;;;;;;4193436;28;20059;-51
2021/06/29 05:53:53;;;;;;;1.13;0.28;;;24.00;76.90;;;;;;4193552;28;20044;-44
2021/06/29 05:56:15;;;;;;;0.10;0.10;;;24.00;77.00;;;;;;4193735;28;20059;-51
2021/06/29 05:58:38;;;;;;;0.00;0.00;;;23.90;76.90;;;;;;4193792;28;20072;-51
2021/06/29 06:01:00;;;;;;;0.00;0.00;;;24.00;77.00;;;;;;4193810;28;20055;-44
2021/06/29 06:03:22;;;;;;;0.00;0.00;;;24.00;77.10;;;;;;4192420;28;20053;-51
2021/06/29 06:05:45;;;;;;;0.10;0.10;;;24.00;77.10;;;;;;4178749;28;20049;-44
2021/06/29 06:08:08;;;;;;;0.17;0.17;;;23.90;78.00;;;;;;4187875;28;20044;-51
2021/06/29 06:10:30;;;;;;;0.17;0.17;;;23.90;77.20;;;;;;4210539;28;20052;-50
2021/06/29 06:12:52;;;;;;;0.28;0.28;;;23.90;77.30;;;;;;4210112;28;20052;-45
2021/06/29 06:15:15;;;;;;;0.03;0.03;;;24.00;77.60;;;;;;4198177;28;20048;-44
2021/06/29 06:17:38;;;;;;;0.00;0.00;;;24.00;78.00;;;;;;4193467;28;20053;-43
2021/06/29 06:20:00;;;;;;;0.25;0.25;;;24.00;78.40;;;;;;4193350;28;20863;-45
2021/06/29 06:22:24;;;;;;;0.00;0.00;;;24.10;78.50;;;;;;4193110;28;20487;-45
2021/06/29 06:24:46;;;;;;;8.77;2.13;;;24.00;78.20;;;;;;4205720;28;20089;-44
2021/06/29 06:27:12;;;;;;;0.03;0.03;;;24.10;77.90;;;;;;4208103;28;20044;-44
2021/06/29 06:29:35;;;;;;;0.00;0.00;;;24.10;77.80;;;;;;4207899;28;20056;-46
2021/06/29 06:31:57;;;;;;;0.17;0.17;;;24.00;77.70;;;;;;4209786;28;20074;-44
2021/06/29 06:34:19;;;;;;;2.80;1.35;;;24.00;77.60;;;;;;4204250;28;20141;-44
2021/06/29 06:36:42;;;;;;;0.10;0.10;;;24.00;77.60;;;;;;4210045;28;20101;-45
2021/06/29 06:39:05;;;;;;;0.52;0.52;;;24.00;77.60;;;;;;4205163;28;20036;-45
2021/06/29 06:41:27;;;;;;;3.75;0.55;;;23.90;77.60;;;;;;4209623;28;20054;-45
2021/06/29 06:43:49;;;;;;;0.20;0.20;;;24.00;78.40;;;;;;4209689;28;20044;-45
2021/06/29 06:46:12;;;;;;;0.00;0.00;;;24.00;77.60;;;;;;4209208;28;20109;-47
2021/06/29 06:48:34;;;;;;;0.00;0.00;;;24.00;77.60;;;;;;4209327;28;20048;-49
2021/06/29 06:50:56;;;;;;;2.92;2.70;;;23.90;77.50;;;;;;4192678;28;20060;-48
2021/06/29 06:53:18;;;;;;;0.00;0.00;;;23.90;77.50;;;;;;4192005;28;20502;-46
2021/06/29 06:55:42;;;;;;;0.47;0.47;;;23.90;77.60;;;;;;4192573;28;20052;-45
2021/06/29 06:58:04;;;;;;;0.00;0.00;;;24.00;78.40;;;;;;4194454;28;20052;-47
2021/06/29 07:00:29;;;;;;;0.93;0.90;;;24.00;77.50;;;;;;4208329;28;20143;-44
2021/06/29 07:02:51;;;;;;;0.13;0.13;;;24.00;77.60;;;;;;4209745;28;20048;-44
2021/06/29 07:05:14;;;;;;;0.00;0.00;;;24.00;77.50;;;;;;4208946;28;20101;-46
2021/06/29 07:07:36;;;;;;;0.00;0.00;;;24.00;77.50;;;;;;4209515;28;20052;-46
2021/06/29 07:09:58;;;;;;;1.45;1.33;;;24.00;77.50;;;;;;4208025;28;20044;-49
2021/06/29 07:12:22;;;;;;;0.85;0.85;;;24.00;77.50;;;;;;4207092;28;20126;-44
2021/06/29 07:14:45;;;;;;;0.75;0.75;;;24.00;77.50;;;;;;4209226;28;20145;-45
2021/06/29 07:17:07;;;;;;;0.00;0.00;;;23.90;77.50;;;;;;4209356;28;20059;-50
2021/06/29 07:19:29;;;;;;;0.65;0.65;;;24.00;77.50;;;;;;4209270;28;20445;-45
2021/06/29 07:21:51;;;;;;;0.22;0.22;;;24.00;77.50;;;;;;4208526;28;20052;-46
2021/06/29 07:24:13;;;;;;;0.28;0.28;;;24.00;78.30;;;;;;4209302;28;20151;-44
2021/06/29 07:26:35;;;;;;;0.20;0.20;;;24.00;77.40;;;;;;4208535;28;20052;-45
2021/06/29 07:28:59;;;;;;;0.00;0.00;;;24.00;77.40;;;;;;4208898;28;20067;-47
2021/06/29 07:31:22;;;;;;;0.00;0.00;;;24.00;77.40;;;;;;4209090;28;20040;-47
2021/06/29 07:33:44;;;;;;;0.20;0.20;;;24.00;77.40;;;;;;4207449;28;20071;-47
2021/06/29 07:36:07;;;;;;;0.00;0.00;;;24.00;77.40;;;;;;4209115;28;20517;-49
2021/06/29 07:38:29;;;;;;;2.08;0.68;;;24.00;77.70;;;;;;4208975;28;20086;-45
2021/06/29 07:40:51;;;;;;;0.30;0.30;;;24.00;77.50;;;;;;4208504;28;20058;-51
2021/06/29 07:43:13;;;;;;;3.00;1.05;;;24.00;77.50;;;;;;4208751;28;20078;-49
2021/06/29 07:45:36;;;;;;;0.43;0.43;;;24.00;77.50;;;;;;4208662;28;20060;-44
2021/06/29 07:48:02;;;;;;;0.00;0.00;;;24.00;77.50;;;;;;4208597;28;20067;-44
2021/06/29 07:50:25;;;;;;;0.10;0.10;;;24.00;77.50;;;;;;4208291;28;20059;-45
2021/06/29 07:52:47;;;;;;;1.75;1.65;;;24.00;77.60;;;;;;4208753;28;20063;-45
2021/06/29 07:55:11;;;;;;;0.55;0.55;;;24.00;77.50;;;;;;4208534;28;20056;-44
2021/06/29 07:57:33;;;;;;;6.93;1.25;;;24.00;77.40;;;;;;4208608;28;20054;-44
2021/06/29 07:59:56;;;;;;;0.25;0.25;;;24.10;77.50;;;;;;4208379;28;20410;-46
2021/06/29 08:02:19;;;;;;;0.08;0.08;;;24.00;77.40;;;;;;4208412;28;20044;-47
2021/06/29 08:04:43;;;;;;;0.10;0.10;;;24.10;77.40;;;;;;4208134;28;20048;-45
2021/06/29 08:07:05;;;;;;;0.55;0.55;;;24.10;77.50;;;;;;4207849;28;20056;-47
2021/06/29 08:09:27;;;;;;;0.13;0.13;;;24.10;77.80;;;;;;4207824;28;20040;-46
2021/06/29 08:11:59;;;;;;;;;;;24.10;78.90;;;;;;4208016;28;20044;-45
2021/06/29 08:14:21;;;;;;;1.05;1.05;;;24.10;78.80;;;;;;4206150;28;19930;-45
2021/06/29 08:16:45;;;;;;;1.02;1.02;;;24.00;78.20;;;;;;4208020;28;20387;-46
2021/06/29 08:19:11;;;;;;;0.47;0.47;;;24.10;78.10;;;;;;4207598;28;20048;-46
2021/06/29 08:21:33;;;;;;;0.00;0.00;;;24.00;78.00;;;;;;4206286;28;20044;-46
2021/06/29 08:23:55;;;;;;;1.30;0.68;;;24.10;77.90;;;;;;4197222;28;20050;-46
2021/06/29 08:26:17;;;;;;;0.00;0.00;;;24.10;77.90;;;;;;4207442;28;20131;-46
2021/06/29 08:28:41;;;;;;;0.88;0.63;;;24.00;77.70;;;;;;4207566;28;20575;-48
2021/06/29 08:31:05;;;;;;;1.00;0.73;;;24.10;77.60;;;;;;4207566;28;20067;-47
2021/06/29 08:33:27;;;;;;;0.38;0.38;;;24.10;77.60;;;;;;4207691;28;20119;-48
2021/06/29 08:35:52;;;;;;;0.10;0.10;;;24.10;77.50;;;;;;4208051;28;20090;-46
2021/06/29 08:38:15;;;;;;;0.35;0.35;;;24.10;77.50;;;;;;4208424;28;20414;-54
2021/06/29 08:40:39;;;;;;;0.73;0.73;;;24.10;77.50;;;;;;4206417;28;20552;-48
2021/06/29 08:43:02;;;;;;;1.55;1.30;;;24.10;77.50;;;;;;4207046;28;20066;-45
2021/06/29 08:45:23;;;;;;;0.10;0.10;;;24.10;77.40;;;;;;4207512;28;20381;-47
2021/06/29 08:47:46;;;;;;;0.00;0.00;;;24.10;77.30;;;;;;4207928;28;20047;-47
2021/06/29 08:50:10;;;;;;;0.25;0.25;;;24.10;77.30;;;;;;4207403;28;20097;-47
2021/06/29 08:52:34;;;;;;;0.75;0.75;;;24.10;77.30;;;;;;4207660;28;20048;-45
2021/06/29 08:54:57;;;;;;;0.00;0.00;;;24.10;77.30;;;;;;4205693;28;20048;-46
2021/06/29 08:57:19;;;;;;;0.10;0.10;;;24.10;77.20;;;;;;4207204;28;20151;-46
2021/06/29 08:59:42;;;;;;;0.60;0.60;;;24.10;77.20;;;;;;4224308;28;20047;-45
2021/06/29 09:02:04;;;;;;;0.60;0.60;;;24.10;77.10;;;;;;4208670;28;20051;-45
2021/06/29 09:04:43;;;;;;;1.10;1.10;;;24.10;77.10;;;;;;4191088;28;20547;-45
2021/06/29 09:07:17;;;;;;;0.28;0.28;;;24.10;77.10;;;;;;4205607;28;20468;-46
2021/06/29 09:09:48;;;;;;;1.27;0.80;;;24.10;77.10;;;;;;4206367;28;20063;-46
2021/06/29 09:12:11;;;;;;;0.40;0.40;;;24.10;77.10;;;;;;4196725;28;20052;-46
2021/06/29 09:14:32;;;;;;;0.00;0.00;;;24.10;77.00;;;;;;4194683;28;20080;-46
2021/06/29 09:17:15;;;;;;;3.83;1.48;;;24.10;77.00;;;;;;4222921;28;20052;-48
2021/06/29 09:19:38;;;;;;;0.20;0.20;;;24.10;77.00;;;;;;4186219;28;20052;-45
2021/06/29 09:22:28;;;;;;;0.85;0.85;;;24.10;77.00;;;;;;4193254;28;20495;-47
2021/06/29 09:24:51;;;;;;;0.80;0.80;;;24.10;77.10;;;;;;4194223;28;20147;-46
2021/06/29 09:27:13;;;;;;;0.93;0.55;;;24.10;77.00;;;;;;4209786;28;20040;-48
2021/06/29 09:29:39;;;;;;;0.70;0.35;;;24.10;77.00;;;;;;4194129;28;20048;-52
2021/06/29 09:32:17;;;;;;;0.20;0.20;;;24.10;77.10;;;;;;4194176;28;20186;-52
2021/06/29 09:34:39;;;;;;;0.55;0.52;;;24.10;77.00;;;;;;4194048;28;20522;-49
2021/06/29 09:37:01;;;;;;;0.00;0.00;;;24.10;77.00;;;;;;4209060;28;20052;-49
2021/06/29 09:39:24;;;;;;;2.25;1.42;;;24.10;76.90;;;;;;4210852;28;20494;-46
2021/06/29 09:41:48;;;;;;;0.77;0.77;;;24.20;76.90;;;;;;4210162;28;20047;-52
2021/06/29 09:44:13;;;;;;;0.65;0.65;;;24.20;77.00;;;;;;4209117;28;20056;-52
2021/06/29 09:46:37;;;;;;;0.10;0.10;;;24.20;76.90;;;;;;4209513;28;20101;-52
2021/06/29 09:49:02;;;;;;;0.15;0.15;;;24.20;76.90;;;;;;4210392;28;20093;-49
2021/06/29 09:51:36;;;;;;;0.82;0.82;;;24.20;76.90;;;;;;4210490;28;20070;-52
2021/06/29 09:54:00;;;;;;;0.10;0.10;;;24.20;76.80;;;;;;4210727;28;20048;-52
2021/06/29 09:56:24;;;;;;;0.45;0.45;;;24.20;77.50;;;;;;4208628;28;20052;-48
2021/06/29 09:58:52;;;;;;;0.00;0.00;;;24.20;76.60;;;;;;4210177;28;20433;-52
2021/06/29 10:01:18;;;;;;;0.08;0.08;;;24.20;76.60;;;;;;4210683;28;20052;-51
2021/06/29 10:03:41;;;;;;;0.08;0.08;;;24.20;76.50;;;;;;4210553;28;20457;-50
2021/06/29 10:06:10;;;;;;;1.00;1.00;;;24.20;76.50;;;;;;4210439;28;20044;-50
2021/06/29 10:08:34;;;;;;;0.47;0.47;;;24.20;76.50;;;;;;4209559;28;20391;-46
2021/06/29 10:11:11;;;;;;;0.00;0.00;;;24.30;76.60;;;;;;4210369;28;20550;-49
2021/06/29 10:13:36;;;;;;;0.00;0.00;;;24.20;76.50;;;;;;4209611;28;20050;-48
2021/06/29 10:15:59;;;;;;;0.95;0.88;;;24.20;76.50;;;;;;4208524;28;20048;-49
2021/06/29 10:18:22;;;;;;;3.05;1.65;;;24.20;76.50;;;;;;4209962;28;20486;-47
2021/06/29 10:20:52;;;;;;;1.38;1.02;;;24.20;76.40;;;;;;4209903;28;20409;-46
2021/06/29 10:23:16;;;;;;;0.10;0.10;;;24.20;76.40;;;;;;4209565;28;20043;-46
2021/06/29 10:25:38;;;;;;;0.40;0.40;;;24.20;76.40;;;;;;4209857;28;20519;-49
2021/06/29 10:28:01;;;;;;;0.55;0.55;;;24.30;76.50;;;;;;4209517;28;20565;-46
2021/06/29 10:30:28;;;;;;;0.05;0.05;;;24.20;76.30;;;;;;4210244;28;20121;-52
2021/06/29 10:32:52;;;;;;;3.22;2.22;;;24.30;76.40;;;;;;4209923;28;20410;-47
2021/06/29 10:35:15;;;;;;;0.63;0.63;;;24.30;76.40;;;;;;4210194;28;20420;-46
2021/06/29 10:37:37;;;;;;;0.20;0.20;;;24.20;76.20;;;;;;4207511;28;20056;-48
2021/06/29 10:40:01;;;;;;;0.10;0.10;;;24.30;76.20;;;;;;4209737;28;20082;-45
2021/06/29 10:42:24;;;;;;;0.88;0.88;;;24.30;76.20;;;;;;4205285;28;20052;-46
2021/06/29 10:44:50;;;;;;;0.75;0.30;;;24.30;76.20;;;;;;4209218;28;20146;-45
2021/06/29 10:47:21;;;;;;;0.38;0.38;;;24.30;76.20;;;;;;4209464;28;20058;-45
2021/06/29 10:49:48;;;;;;;0.43;0.43;;;24.30;76.20;;;;;;4206708;28;20074;-47
2021/06/29 10:52:37;;;;;;;2.05;1.95;;;24.30;76.20;;;;;;4209355;28;20048;-47
2021/06/29 10:55:00;;;;;;;0.40;0.40;;;24.30;76.20;;;;;;4209026;28;20044;-50
2021/06/29 10:57:26;;;;;;;1.33;1.33;;;24.40;76.10;;;;;;4209611;28;20052;-47
2021/06/29 10:59:50;;;;;;;0.50;0.50;;;24.40;76.10;;;;;;4209709;28;20576;-44
2021/06/29 11:02:33;;;;;;;1.35;1.25;;;24.40;76.00;;;;;;4209378;28;20048;-47
2021/06/29 11:04:59;;;;;;;0.20;0.20;;;24.40;76.20;;;;;;4209005;28;20051;-45
2021/06/29 11:07:38;;;;;;;0.75;0.75;;;24.40;76.10;;;;;;4209512;28;20040;-48
2021/06/29 11:10:03;;;;;;;0.10;0.10;;;24.40;76.00;;;;;;4209306;28;20520;-48
2021/06/29 11:12:27;;;;;;;0.40;0.40;;;24.40;75.90;;;;;;4209188;28;20497;-47
2021/06/29 11:14:50;;;;;;;0.17;0.13;;;24.40;75.90;;;;;;4209310;28;20052;-46
2021/06/29 11:17:12;;;;;;;1.02;1.02;;;24.40;75.80;;;;;;4209498;28;20052;-47
2021/06/29 11:20:07;;;;;;;0.40;0.40;;;24.40;75.80;;;;;;4209477;28;20048;-47
2021/06/29 11:22:53;;;;;;;0.15;0.15;;;24.40;75.70;;;;;;4208741;28;20873;-49
2021/06/29 11:25:16;;;;;;;0.28;0.28;;;24.40;75.70;;;;;;4208518;28;20040;-52
2021/06/29 11:28:01;;;;;;;3.63;1.48;;;24.40;75.70;;;;;;4208072;28;20075;-45
2021/06/29 11:30:55;;;;;;;0.20;0.20;;;24.30;75.70;;;;;;4207243;28;20101;-45
2021/06/29 11:33:43;;;;;;;1.27;0.40;;;24.40;75.80;;;;;;4207529;28;20054;-48
2021/06/29 11:36:09;;;;;;;0.40;0.40;;;24.40;75.90;;;;;;4191233;28;20059;-45
2021/06/29 11:38:36;;;;;;;1.33;1.25;;;24.40;75.90;;;;;;4191851;28;20133;-48
2021/06/29 11:41:23;;;;;;;0.82;0.82;;;24.30;76.00;;;;;;4192352;28;20048;-48
2021/06/29 11:43:46;;;;;;;3.42;2.13;;;24.30;76.10;;;;;;4195707;28;20569;-46
2021/06/29 11:46:08;;;;;;;0.65;0.65;;;24.30;76.10;;;;;;4208414;28;20044;-48
2021/06/29 11:48:41;;;;;;;1.10;1.10;;;24.30;76.20;;;;;;4208577;28;20059;-46
2021/06/29 11:51:04;;;;;;;0.98;0.98;;;24.30;76.20;;;;;;4208523;28;20047;-46
2021/06/29 11:53:27;;;;;;;0.55;0.55;;;24.30;76.20;;;;;;4208655;28;20052;-45
2021/06/29 11:55:49;;;;;;;0.55;0.55;;;24.20;76.30;;;;;;4208660;28;20048;-48
2021/06/29 11:58:12;;;;;;;1.38;0.82;;;24.20;76.30;;;;;;4207203;28;20177;-48
2021/06/29 12:00:36;;;;;;;0.17;0.17;;;24.20;76.50;;;;;;4208779;28;20064;-49
2021/06/29 12:03:00;;;;;;;0.65;0.65;;;24.20;76.50;;;;;;4208447;28;20495;-50
2021/06/29 12:05:24;;;;;;;1.48;1.38;;;24.20;76.60;;;;;;4208550;28;20046;-48
2021/06/29 12:07:47;;;;;;;4.18;2.13;;;24.20;76.60;;;;;;4207062;28;20052;-45
2021/06/29 12:10:14;;;;;;;2.47;0.63;;;24.20;76.70;;;;;;4208446;28;20044;-46
2021/06/29 12:12:37;;;;;;;0.25;0.25;;;24.20;76.60;;;;;;4208354;28;20090;-47
2021/06/29 12:15:02;;;;;;;2.47;0.47;;;24.20;76.80;;;;;;4208278;28;20044;-50
2021/06/29 12:17:24;;;;;;;0.40;0.40;;;24.20;76.80;;;;;;4207961;28;20060;-47
2021/06/29 12:19:47;;;;;;;0.45;0.45;;;24.20;76.70;;;;;;4208347;28;20136;-47
2021/06/29 12:22:09;;;;;;;0.17;0.17;;;24.20;76.70;;;;;;4208373;28;20059;-48
2021/06/29 12:24:31;;;;;;;0.98;0.82;;;24.20;76.70;;;;;;4208053;28;20540;-45
2021/06/29 12:26:55;;;;;;;0.50;0.50;;;24.20;76.70;;;;;;4206903;28;20051;-48
2021/06/29 12:29:29;;;;;;;1.50;1.50;;;24.20;76.70;;;;;;4208396;28;20051;-47
2021/06/29 12:31:52;;;;;;;0.63;0.63;;;24.20;76.70;;;;;;4206011;28;20124;-45